This is the latest recevied weather packets stored in our database for station/object I2HLY-4. If no packets are shown the sender has not sent any weather packets the latest 10 day(s).
| Time | Temp. | Humidity | Pressure | Rain* | Wind** | Luminosity | Snow |
|---|---|---|---|---|---|---|---|
| 1778063531 | 8.89° C | 93% | 1010.6 hPa | 1.02 mm | - | - | - |
| 1778062635 | 8.89° C | 91% | 1010.9 hPa | 3.05 mm | - | - | - |
| 1778061734 | 8.33° C | 92% | 1010.9 hPa | 5.08 mm | - | - | - |
| 1778060840 | 8.33° C | 93% | 1010.7 hPa | 7.87 mm | - | - | - |
| 1778059941 | 7.78° C | 94% | 1010.8 hPa | 7.11 mm | - | - | - |
| 1778059043 | 8.33° C | 92% | 1010.7 hPa | 5.08 mm | - | - | - |
| 1778058147 | 8.33° C | 88% | 1010.1 hPa | 3.05 mm | - | - | - |
| 1778057248 | 8.89° C | 85% | 1010.1 hPa | 0 mm | - | - | - |
| 1778056331 | 9.44° C | 86% | 1010 hPa | 0 mm | - | - | - |
| 1778055432 | 9.44° C | 85% | 1010 hPa | 0 mm | - | - | - |
| 1778054532 | 9.44° C | 84% | 1009.8 hPa | 0 mm | - | - | - |
| 1778053637 | 9.44° C | 86% | 1010.1 hPa | 0 mm | - | - | - |
| 1778052734 | 9.44° C | 86% | 1010.1 hPa | 0 mm | - | - | - |
| 1778051834 | 8.89° C | 88% | 1010.2 hPa | 0 mm | - | - | - |
| 1778050936 | 8.33° C | 89% | 1010 hPa | 0 mm | - | - | - |
| 1778050036 | 7.78° C | 93% | 1010.3 hPa | 2.03 mm | - | - | - |
| 1778049141 | 7.78° C | 94% | 1010.7 hPa | 4.06 mm | - | - | - |
| 1778048238 | 7.78° C | 95% | 1010.7 hPa | 6.1 mm | - | - | - |
| 1778047335 | 7.78° C | 97% | 1010.5 hPa | 9.91 mm | - | - | - |
| 1778046438 | 7.78° C | 97% | 1010.9 hPa | 7.87 mm | - | - | - |
| 1778045538 | 7.78° C | 97% | 1011.3 hPa | 7.11 mm | - | - | - |
| 1778044641 | 7.78° C | 97% | 1011.1 hPa | 6.1 mm | - | - | - |
| 1778043741 | 7.78° C | 97% | 1011.1 hPa | 3.05 mm | - | - | - |
| 1778042843 | 7.78° C | 97% | 1011.3 hPa | 2.03 mm | - | - | - |
| 1778041947 | 7.78° C | 97% | 1011.2 hPa | 1.02 mm | - | - | - |
* Rain latest hour (hover to see other rain measurements)
** Current wind speed in m/s (hover to see current wind gust speed)